sensor_id;sensor_type;location;lat;lon;timestamp;temperature;humidity
10247;DHT22;5168;47.854;7.944;2023-09-19T00:00:34;13.40;99.90
10247;DHT22;5168;47.854;7.944;2023-09-19T00:03:01;13.50;99.90
10247;DHT22;5168;47.854;7.944;2023-09-19T00:05:28;13.10;99.90
10247;DHT22;5168;47.854;7.944;2023-09-19T00:07:55;13.30;99.90
10247;DHT22;5168;47.854;7.944;2023-09-19T00:15:17;12.90;99.90
10247;DHT22;5168;47.854;7.944;2023-09-19T00:17:43;13.30;99.90
10247;DHT22;5168;47.854;7.944;2023-09-19T00:20:09;12.80;99.90
10247;DHT22;5168;47.854;7.944;2023-09-19T00:22:41;13.00;99.90
10247;DHT22;5168;47.854;7.944;2023-09-19T00:27:35;13.30;99.90
10247;DHT22;5168;47.854;7.944;2023-09-19T00:30:01;13.00;99.90
10247;DHT22;5168;47.854;7.944;2023-09-19T00:34:57;13.00;99.90
10247;DHT22;5168;47.854;7.944;2023-09-19T00:37:23;12.80;99.90
10247;DHT22;5168;47.854;7.944;2023-09-19T00:39:48;12.90;99.90
10247;DHT22;5168;47.854;7.944;2023-09-19T00:42:20;12.50;99.90
10247;DHT22;5168;47.854;7.944;2023-09-19T00:44:46;13.00;99.90
10247;DHT22;5168;47.854;7.944;2023-09-19T00:47:12;12.80;99.90
10247;DHT22;5168;47.854;7.944;2023-09-19T00:49:43;12.70;99.90
10247;DHT22;5168;47.854;7.944;2023-09-19T00:52:08;12.70;99.90
10247;DHT22;5168;47.854;7.944;2023-09-19T00:54:36;13.20;99.90
10247;DHT22;5168;47.854;7.944;2023-09-19T00:59:28;12.80;99.90
10247;DHT22;5168;47.854;7.944;2023-09-19T01:01:56;12.90;99.90
10247;DHT22;5168;47.854;7.944;2023-09-19T01:04:22;12.70;99.90
10247;DHT22;5168;47.854;7.944;2023-09-19T01:06:49;12.40;99.90
10247;DHT22;5168;47.854;7.944;2023-09-19T01:09:19;12.50;99.90
10247;DHT22;5168;47.854;7.944;2023-09-19T01:11:48;13.00;99.90
10247;DHT22;5168;47.854;7.944;2023-09-19T01:14:33;12.40;99.90
10247;DHT22;5168;47.854;7.944;2023-09-19T01:17:29;12.60;99.90
10247;DHT22;5168;47.854;7.944;2023-09-19T01:20:23;12.60;99.90
10247;DHT22;5168;47.854;7.944;2023-09-19T01:23:08;12.60;99.90
10247;DHT22;5168;47.854;7.944;2023-09-19T01:31:23;12.70;99.90
10247;DHT22;5168;47.854;7.944;2023-09-19T01:33:58;12.90;99.90
10247;DHT22;5168;47.854;7.944;2023-09-19T01:36:34;13.10;99.90
10247;DHT22;5168;47.854;7.944;2023-09-19T01:39:05;12.60;99.90
10247;DHT22;5168;47.854;7.944;2023-09-19T01:42:03;13.00;99.90
10247;DHT22;5168;47.854;7.944;2023-09-19T01:44:40;12.40;99.90
10247;DHT22;5168;47.854;7.944;2023-09-19T01:47:28;12.50;99.90
10247;DHT22;5168;47.854;7.944;2023-09-19T01:50:06;12.60;99.90
10247;DHT22;5168;47.854;7.944;2023-09-19T01:52:36;12.40;99.90
10247;DHT22;5168;47.854;7.944;2023-09-19T01:55:09;12.40;99.90
10247;DHT22;5168;47.854;7.944;2023-09-19T01:57:42;12.50;99.90
10247;DHT22;5168;47.854;7.944;2023-09-19T02:00:11;12.30;99.90
10247;DHT22;5168;47.854;7.944;2023-09-19T02:02:40;12.40;99.90
10247;DHT22;5168;47.854;7.944;2023-09-19T02:05:07;12.80;99.90
10247;DHT22;5168;47.854;7.944;2023-09-19T02:07:33;12.80;99.90
10247;DHT22;5168;47.854;7.944;2023-09-19T02:09:59;12.50;99.90
10247;DHT22;5168;47.854;7.944;2023-09-19T02:12:32;12.30;99.90
10247;DHT22;5168;47.854;7.944;2023-09-19T02:17:26;12.90;99.90
10247;DHT22;5168;47.854;7.944;2023-09-19T02:19:53;12.60;99.90
10247;DHT22;5168;47.854;7.944;2023-09-19T02:22:20;12.30;99.90
10247;DHT22;5168;47.854;7.944;2023-09-19T02:24:45;12.60;99.90
10247;DHT22;5168;47.854;7.944;2023-09-19T02:32:07;12.40;99.90
10247;DHT22;5168;47.854;7.944;2023-09-19T02:34:32;12.20;99.90
10247;DHT22;5168;47.854;7.944;2023-09-19T02:37:04;12.50;99.90
10247;DHT22;5168;47.854;7.944;2023-09-19T02:41:56;12.60;99.90
10247;DHT22;5168;47.854;7.944;2023-09-19T02:44:22;11.90;99.90
10247;DHT22;5168;47.854;7.944;2023-09-19T02:46:49;12.30;99.90
10247;DHT22;5168;47.854;7.944;2023-09-19T02:49:15;11.90;99.90
10247;DHT22;5168;47.854;7.944;2023-09-19T02:51:40;12.10;99.90
10247;DHT22;5168;47.854;7.944;2023-09-19T02:56:33;12.50;99.90
10247;DHT22;5168;47.854;7.944;2023-09-19T03:01:26;12.10;99.90
10247;DHT22;5168;47.854;7.944;2023-09-19T03:03:52;12.30;99.90
10247;DHT22;5168;47.854;7.944;2023-09-19T03:08:45;12.60;99.90
10247;DHT22;5168;47.854;7.944;2023-09-19T03:11:14;12.60;99.90
10247;DHT22;5168;47.854;7.944;2023-09-19T03:16:08;12.30;99.90
10247;DHT22;5168;47.854;7.944;2023-09-19T03:18:34;12.20;99.90
10247;DHT22;5168;47.854;7.944;2023-09-19T03:21:00;12.00;99.90
10247;DHT22;5168;47.854;7.944;2023-09-19T03:23:26;12.30;99.90
10247;DHT22;5168;47.854;7.944;2023-09-19T03:25:52;12.10;99.90
10247;DHT22;5168;47.854;7.944;2023-09-19T03:28:21;12.20;99.90
10247;DHT22;5168;47.854;7.944;2023-09-19T03:31:06;12.50;99.90
10247;DHT22;5168;47.854;7.944;2023-09-19T03:33:32;11.90;99.90
10247;DHT22;5168;47.854;7.944;2023-09-19T03:35:59;11.80;99.90
10247;DHT22;5168;47.854;7.944;2023-09-19T03:38:26;12.20;99.90
10247;DHT22;5168;47.854;7.944;2023-09-19T03:40:53;11.90;99.90
10247;DHT22;5168;47.854;7.944;2023-09-19T03:43:18;12.50;99.90
10247;DHT22;5168;47.854;7.944;2023-09-19T03:48:12;11.80;99.90
10247;DHT22;5168;47.854;7.944;2023-09-19T03:50:38;12.20;99.90
10247;DHT22;5168;47.854;7.944;2023-09-19T03:53:04;12.10;99.90
10247;DHT22;5168;47.854;7.944;2023-09-19T03:55:29;11.90;99.90
10247;DHT22;5168;47.854;7.944;2023-09-19T03:57:58;11.90;99.90
10247;DHT22;5168;47.854;7.944;2023-09-19T04:00:23;11.60;99.90
10247;DHT22;5168;47.854;7.944;2023-09-19T04:02:52;12.10;99.90
10247;DHT22;5168;47.854;7.944;2023-09-19T04:05:18;11.90;99.90
10247;DHT22;5168;47.854;7.944;2023-09-19T04:07:44;12.60;99.90
10247;DHT22;5168;47.854;7.944;2023-09-19T04:10:10;12.10;99.90
10247;DHT22;5168;47.854;7.944;2023-09-19T04:12:40;12.50;99.90
10247;DHT22;5168;47.854;7.944;2023-09-19T04:15:06;12.10;99.90
10247;DHT22;5168;47.854;7.944;2023-09-19T04:17:32;12.10;99.90
10247;DHT22;5168;47.854;7.944;2023-09-19T04:20:00;11.40;99.90
10247;DHT22;5168;47.854;7.944;2023-09-19T04:22:26;11.80;99.90
10247;DHT22;5168;47.854;7.944;2023-09-19T04:27:17;11.90;99.90
10247;DHT22;5168;47.854;7.944;2023-09-19T04:29:44;11.70;99.90
10247;DHT22;5168;47.854;7.944;2023-09-19T04:32:10;12.30;99.90
10247;DHT22;5168;47.854;7.944;2023-09-19T04:34:36;12.40;99.90
10247;DHT22;5168;47.854;7.944;2023-09-19T04:37:01;12.30;99.90
10247;DHT22;5168;47.854;7.944;2023-09-19T04:39:27;12.10;99.90
10247;DHT22;5168;47.854;7.944;2023-09-19T04:41:53;11.90;99.90
10247;DHT22;5168;47.854;7.944;2023-09-19T04:44:20;12.10;99.90
10247;DHT22;5168;47.854;7.944;2023-09-19T04:46:46;12.30;99.90
10247;DHT22;5168;47.854;7.944;2023-09-19T04:49:12;11.90;99.90
10247;DHT22;5168;47.854;7.944;2023-09-19T04:51:38;11.90;99.90
10247;DHT22;5168;47.854;7.944;2023-09-19T04:54:04;11.90;99.90
10247;DHT22;5168;47.854;7.944;2023-09-19T05:06:22;12.50;99.90
10247;DHT22;5168;47.854;7.944;2023-09-19T05:08:48;12.10;99.90
10247;DHT22;5168;47.854;7.944;2023-09-19T05:11:21;12.10;99.90
10247;DHT22;5168;47.854;7.944;2023-09-19T05:13:48;11.60;99.90
10247;DHT22;5168;47.854;7.944;2023-09-19T05:16:15;12.10;99.90
10247;DHT22;5168;47.854;7.944;2023-09-19T05:18:41;12.30;99.90
10247;DHT22;5168;47.854;7.944;2023-09-19T05:21:07;11.70;99.90
10247;DHT22;5168;47.854;7.944;2023-09-19T05:23:33;12.00;99.90
10247;DHT22;5168;47.854;7.944;2023-09-19T05:28:25;11.80;99.90
10247;DHT22;5168;47.854;7.944;2023-09-19T05:30:52;11.90;99.90
10247;DHT22;5168;47.854;7.944;2023-09-19T05:33:18;12.10;99.90
10247;DHT22;5168;47.854;7.944;2023-09-19T05:38:12;12.30;99.90
10247;DHT22;5168;47.854;7.944;2023-09-19T05:40:39;12.00;99.90
10247;DHT22;5168;47.854;7.944;2023-09-19T05:48:08;12.00;99.90
10247;DHT22;5168;47.854;7.944;2023-09-19T05:50:34;11.80;99.90
10247;DHT22;5168;47.854;7.944;2023-09-19T05:53:00;12.10;99.90
10247;DHT22;5168;47.854;7.944;2023-09-19T05:55:25;11.90;99.90
10247;DHT22;5168;47.854;7.944;2023-09-19T05:57:51;12.30;99.90
10247;DHT22;5168;47.854;7.944;2023-09-19T06:00:19;11.80;99.90
10247;DHT22;5168;47.854;7.944;2023-09-19T06:02:50;12.00;99.90
10247;DHT22;5168;47.854;7.944;2023-09-19T06:05:16;12.20;99.90
10247;DHT22;5168;47.854;7.944;2023-09-19T06:07:41;12.50;99.90
10247;DHT22;5168;47.854;7.944;2023-09-19T06:10:07;12.10;99.90
10247;DHT22;5168;47.854;7.944;2023-09-19T06:12:38;12.10;99.90
10247;DHT22;5168;47.854;7.944;2023-09-19T06:15:06;12.40;99.90
10247;DHT22;5168;47.854;7.944;2023-09-19T06:20:05;12.30;99.90
10247;DHT22;5168;47.854;7.944;2023-09-19T06:22:38;12.20;99.90
10247;DHT22;5168;47.854;7.944;2023-09-19T06:25:04;12.00;99.90
10247;DHT22;5168;47.854;7.944;2023-09-19T06:29:55;12.10;99.90
10247;DHT22;5168;47.854;7.944;2023-09-19T06:32:27;11.70;99.90
10247;DHT22;5168;47.854;7.944;2023-09-19T06:34:52;12.10;99.90
10247;DHT22;5168;47.854;7.944;2023-09-19T06:37:20;12.30;99.90
10247;DHT22;5168;47.854;7.944;2023-09-19T06:39:46;12.50;99.90
10247;DHT22;5168;47.854;7.944;2023-09-19T06:42:15;12.10;99.90
10247;DHT22;5168;47.854;7.944;2023-09-19T06:44:42;11.80;99.90
10247;DHT22;5168;47.854;7.944;2023-09-19T06:49:36;12.10;99.90
10247;DHT22;5168;47.854;7.944;2023-09-19T06:54:28;12.00;99.90
10247;DHT22;5168;47.854;7.944;2023-09-19T06:59:24;12.10;99.90
10247;DHT22;5168;47.854;7.944;2023-09-19T07:01:49;12.10;99.90
10247;DHT22;5168;47.854;7.944;2023-09-19T07:04:16;12.30;99.90
10247;DHT22;5168;47.854;7.944;2023-09-19T07:06:42;12.70;99.90
10247;DHT22;5168;47.854;7.944;2023-09-19T07:14:02;12.40;99.90
10247;DHT22;5168;47.854;7.944;2023-09-19T07:16:28;12.90;99.90
10247;DHT22;5168;47.854;7.944;2023-09-19T07:18:55;12.70;99.90
10247;DHT22;5168;47.854;7.944;2023-09-19T07:21:22;12.70;99.90
10247;DHT22;5168;47.854;7.944;2023-09-19T07:23:48;13.10;99.90
10247;DHT22;5168;47.854;7.944;2023-09-19T07:31:05;14.00;99.90
10247;DHT22;5168;47.854;7.944;2023-09-19T07:33:32;13.90;99.90
10247;DHT22;5168;47.854;7.944;2023-09-19T07:38:24;13.50;99.90
10247;DHT22;5168;47.854;7.944;2023-09-19T07:40:51;14.20;99.90
10247;DHT22;5168;47.854;7.944;2023-09-19T07:43:17;14.30;99.90
10247;DHT22;5168;47.854;7.944;2023-09-19T07:45:43;13.30;99.90
10247;DHT22;5168;47.854;7.944;2023-09-19T07:48:09;13.70;99.90
10247;DHT22;5168;47.854;7.944;2023-09-19T07:50:39;13.80;99.90
10247;DHT22;5168;47.854;7.944;2023-09-19T07:53:05;13.60;99.90
10247;DHT22;5168;47.854;7.944;2023-09-19T07:55:31;13.30;99.90
10247;DHT22;5168;47.854;7.944;2023-09-19T07:57:59;13.50;99.90
10247;DHT22;5168;47.854;7.944;2023-09-19T08:02:50;13.70;99.90
10247;DHT22;5168;47.854;7.944;2023-09-19T08:05:17;13.70;99.90
10247;DHT22;5168;47.854;7.944;2023-09-19T08:07:45;13.80;99.90
10247;DHT22;5168;47.854;7.944;2023-09-19T08:10:18;13.00;99.90
10247;DHT22;5168;47.854;7.944;2023-09-19T08:12:45;13.30;99.90
10247;DHT22;5168;47.854;7.944;2023-09-19T08:15:16;13.10;99.90
10247;DHT22;5168;47.854;7.944;2023-09-19T08:17:42;13.30;99.90
10247;DHT22;5168;47.854;7.944;2023-09-19T08:20:09;13.50;99.90
10247;DHT22;5168;47.854;7.944;2023-09-19T08:22:42;13.30;99.90
10247;DHT22;5168;47.854;7.944;2023-09-19T08:25:09;13.60;99.90
10247;DHT22;5168;47.854;7.944;2023-09-19T08:27:34;13.40;99.90
10247;DHT22;5168;47.854;7.944;2023-09-19T08:30:01;13.70;99.90
10247;DHT22;5168;47.854;7.944;2023-09-19T08:32:29;13.30;99.90
10247;DHT22;5168;47.854;7.944;2023-09-19T08:47:10;13.80;99.90
10247;DHT22;5168;47.854;7.944;2023-09-19T08:52:41;13.30;99.90
10247;DHT22;5168;47.854;7.944;2023-09-19T08:55:07;13.40;99.90
10247;DHT22;5168;47.854;7.944;2023-09-19T08:57:36;13.50;99.90
10247;DHT22;5168;47.854;7.944;2023-09-19T09:00:07;13.50;99.90
10247;DHT22;5168;47.854;7.944;2023-09-19T09:02:40;13.70;99.90
10247;DHT22;5168;47.854;7.944;2023-09-19T09:05:09;13.20;99.90
10247;DHT22;5168;47.854;7.944;2023-09-19T09:07:36;13.20;99.90
10247;DHT22;5168;47.854;7.944;2023-09-19T09:10:03;13.40;99.90
10247;DHT22;5168;47.854;7.944;2023-09-19T09:12:29;14.00;99.90
10247;DHT22;5168;47.854;7.944;2023-09-19T09:14:55;13.90;99.90
10247;DHT22;5168;47.854;7.944;2023-09-19T09:17:23;13.70;99.90
10247;DHT22;5168;47.854;7.944;2023-09-19T09:19:52;13.90;99.90
10247;DHT22;5168;47.854;7.944;2023-09-19T09:24:56;14.30;99.90
10247;DHT22;5168;47.854;7.944;2023-09-19T09:27:28;13.70;99.90
10247;DHT22;5168;47.854;7.944;2023-09-19T09:29:54;13.70;99.90
10247;DHT22;5168;47.854;7.944;2023-09-19T09:32:29;14.10;99.90
10247;DHT22;5168;47.854;7.944;2023-09-19T09:35:00;14.20;99.90
10247;DHT22;5168;47.854;7.944;2023-09-19T09:37:26;14.20;99.90
10247;DHT22;5168;47.854;7.944;2023-09-19T09:39:55;14.20;99.90
10247;DHT22;5168;47.854;7.944;2023-09-19T09:42:36;14.30;99.90
10247;DHT22;5168;47.854;7.944;2023-09-19T09:45:21;14.90;99.90
10247;DHT22;5168;47.854;7.944;2023-09-19T09:48:00;14.80;99.90
10247;DHT22;5168;47.854;7.944;2023-09-19T09:50:36;14.70;99.90
10247;DHT22;5168;47.854;7.944;2023-09-19T10:00:58;14.20;99.90
10247;DHT22;5168;47.854;7.944;2023-09-19T10:03:37;14.40;99.90
10247;DHT22;5168;47.854;7.944;2023-09-19T10:06:10;14.50;99.90
10247;DHT22;5168;47.854;7.944;2023-09-19T10:09:04;14.80;99.90
10247;DHT22;5168;47.854;7.944;2023-09-19T10:11:40;14.90;99.90
10247;DHT22;5168;47.854;7.944;2023-09-19T10:14:09;15.40;99.90
10247;DHT22;5168;47.854;7.944;2023-09-19T10:16:40;15.40;99.90
10247;DHT22;5168;47.854;7.944;2023-09-19T10:19:07;15.10;99.90
10247;DHT22;5168;47.854;7.944;2023-09-19T10:21:36;14.40;99.90
10247;DHT22;5168;47.854;7.944;2023-09-19T10:24:05;14.80;99.90
10247;DHT22;5168;47.854;7.944;2023-09-19T10:26:36;14.70;99.90
10247;DHT22;5168;47.854;7.944;2023-09-19T10:29:03;15.20;99.90
10247;DHT22;5168;47.854;7.944;2023-09-19T10:31:32;15.30;99.90
10247;DHT22;5168;47.854;7.944;2023-09-19T10:34:03;15.30;99.90
10247;DHT22;5168;47.854;7.944;2023-09-19T10:36:32;15.10;99.90
10247;DHT22;5168;47.854;7.944;2023-09-19T10:39:02;15.00;99.90
10247;DHT22;5168;47.854;7.944;2023-09-19T10:41:32;14.70;99.90
10247;DHT22;5168;47.854;7.944;2023-09-19T10:44:03;15.40;99.90
10247;DHT22;5168;47.854;7.944;2023-09-19T10:46:32;15.10;99.90
10247;DHT22;5168;47.854;7.944;2023-09-19T10:49:01;15.50;99.90
10247;DHT22;5168;47.854;7.944;2023-09-19T10:51:32;15.20;99.90
10247;DHT22;5168;47.854;7.944;2023-09-19T10:54:06;15.90;99.90
10247;DHT22;5168;47.854;7.944;2023-09-19T10:56:38;16.30;99.90
10247;DHT22;5168;47.854;7.944;2023-09-19T10:59:15;16.50;99.90
10247;DHT22;5168;47.854;7.944;2023-09-19T11:01:46;16.90;99.90
10247;DHT22;5168;47.854;7.944;2023-09-19T11:04:28;17.40;99.90
10247;DHT22;5168;47.854;7.944;2023-09-19T11:07:01;17.90;99.90
10247;DHT22;5168;47.854;7.944;2023-09-19T11:12:12;18.70;99.90
10247;DHT22;5168;47.854;7.944;2023-09-19T11:14:39;18.60;99.90
10247;DHT22;5168;47.854;7.944;2023-09-19T11:30:45;18.00;99.90
10247;DHT22;5168;47.854;7.944;2023-09-19T11:36:05;18.30;99.90
10247;DHT22;5168;47.854;7.944;2023-09-19T11:43:54;19.30;99.90
10247;DHT22;5168;47.854;7.944;2023-09-19T11:46:59;18.50;99.90
10247;DHT22;5168;47.854;7.944;2023-09-19T11:49:30;18.30;99.90
10247;DHT22;5168;47.854;7.944;2023-09-19T11:51:58;18.10;99.90
10247;DHT22;5168;47.854;7.944;2023-09-19T11:54:27;18.00;99.90
10247;DHT22;5168;47.854;7.944;2023-09-19T11:56:57;17.60;99.90
10247;DHT22;5168;47.854;7.944;2023-09-19T11:59:28;17.30;99.90
10247;DHT22;5168;47.854;7.944;2023-09-19T12:02:01;17.50;99.90
10247;DHT22;5168;47.854;7.944;2023-09-19T12:04:39;17.60;99.90
10247;DHT22;5168;47.854;7.944;2023-09-19T12:07:07;17.80;99.90
10247;DHT22;5168;47.854;7.944;2023-09-19T12:09:39;18.20;99.90
10247;DHT22;5168;47.854;7.944;2023-09-19T12:12:06;17.90;99.90
10247;DHT22;5168;47.854;7.944;2023-09-19T12:16:58;18.50;99.90
10247;DHT22;5168;47.854;7.944;2023-09-19T12:19:26;19.00;99.90
10247;DHT22;5168;47.854;7.944;2023-09-19T12:24:23;18.50;99.90
10247;DHT22;5168;47.854;7.944;2023-09-19T12:29:20;18.40;99.90
10247;DHT22;5168;47.854;7.944;2023-09-19T12:31:56;18.70;99.90
10247;DHT22;5168;47.854;7.944;2023-09-19T12:34:30;18.80;99.90
10247;DHT22;5168;47.854;7.944;2023-09-19T12:37:13;19.40;99.90
10247;DHT22;5168;47.854;7.944;2023-09-19T12:39:50;18.90;99.90
10247;DHT22;5168;47.854;7.944;2023-09-19T12:42:24;19.10;99.90
10247;DHT22;5168;47.854;7.944;2023-09-19T12:44:51;19.50;99.90
10247;DHT22;5168;47.854;7.944;2023-09-19T12:47:23;19.30;99.90
10247;DHT22;5168;47.854;7.944;2023-09-19T12:52:39;20.30;99.90
10247;DHT22;5168;47.854;7.944;2023-09-19T12:55:05;19.60;99.90
10247;DHT22;5168;47.854;7.944;2023-09-19T12:57:33;20.60;99.90
10247;DHT22;5168;47.854;7.944;2023-09-19T13:00:01;20.40;99.90
10247;DHT22;5168;47.854;7.944;2023-09-19T13:02:27;20.80;99.90
10247;DHT22;5168;47.854;7.944;2023-09-19T13:04:54;20.50;99.90
10247;DHT22;5168;47.854;7.944;2023-09-19T13:07:43;21.10;99.90
10247;DHT22;5168;47.854;7.944;2023-09-19T13:10:09;20.10;99.90
10247;DHT22;5168;47.854;7.944;2023-09-19T13:12:37;20.20;99.90
10247;DHT22;5168;47.854;7.944;2023-09-19T13:15:10;20.80;99.90
10247;DHT22;5168;47.854;7.944;2023-09-19T13:17:48;21.20;99.90
10247;DHT22;5168;47.854;7.944;2023-09-19T13:20:24;22.10;99.90
10247;DHT22;5168;47.854;7.944;2023-09-19T13:22:53;22.00;99.90
10247;DHT22;5168;47.854;7.944;2023-09-19T13:25:20;21.90;99.90
10247;DHT22;5168;47.854;7.944;2023-09-19T13:27:48;21.70;99.90
10247;DHT22;5168;47.854;7.944;2023-09-19T13:30:19;21.60;99.90
10247;DHT22;5168;47.854;7.944;2023-09-19T13:32:45;21.60;99.90
10247;DHT22;5168;47.854;7.944;2023-09-19T13:35:12;20.80;99.90
10247;DHT22;5168;47.854;7.944;2023-09-19T13:40:09;20.30;99.90
10247;DHT22;5168;47.854;7.944;2023-09-19T13:42:36;20.00;99.90
10247;DHT22;5168;47.854;7.944;2023-09-19T13:45:02;19.40;99.90
10247;DHT22;5168;47.854;7.944;2023-09-19T13:47:30;20.00;99.90
10247;DHT22;5168;47.854;7.944;2023-09-19T13:54:49;20.40;99.90
10247;DHT22;5168;47.854;7.944;2023-09-19T13:57:16;20.20;99.90
10247;DHT22;5168;47.854;7.944;2023-09-19T13:59:42;19.90;99.90
10247;DHT22;5168;47.854;7.944;2023-09-19T14:04:33;20.10;99.90
10247;DHT22;5168;47.854;7.944;2023-09-19T14:07:00;19.90;99.90
10247;DHT22;5168;47.854;7.944;2023-09-19T14:09:26;20.40;99.90
10247;DHT22;5168;47.854;7.944;2023-09-19T14:14:19;20.40;99.90
10247;DHT22;5168;47.854;7.944;2023-09-19T14:16:46;20.50;99.90
10247;DHT22;5168;47.854;7.944;2023-09-19T14:21:39;19.80;99.90
10247;DHT22;5168;47.854;7.944;2023-09-19T14:26:35;19.20;99.90
10247;DHT22;5168;47.854;7.944;2023-09-19T14:31:26;18.60;99.90
10247;DHT22;5168;47.854;7.944;2023-09-19T14:33:56;18.80;99.90
10247;DHT22;5168;47.854;7.944;2023-09-19T14:36:22;18.80;99.90
10247;DHT22;5168;47.854;7.944;2023-09-19T14:38:52;18.80;99.90
10247;DHT22;5168;47.854;7.944;2023-09-19T14:43:45;19.30;99.90
10247;DHT22;5168;47.854;7.944;2023-09-19T14:46:10;18.20;99.90
10247;DHT22;5168;47.854;7.944;2023-09-19T14:48:37;18.00;99.90
10247;DHT22;5168;47.854;7.944;2023-09-19T14:51:06;17.90;99.90
10247;DHT22;5168;47.854;7.944;2023-09-19T14:56:01;18.20;99.90
10247;DHT22;5168;47.854;7.944;2023-09-19T15:01:05;18.40;99.90
10247;DHT22;5168;47.854;7.944;2023-09-19T15:03:32;18.10;99.90
10247;DHT22;5168;47.854;7.944;2023-09-19T15:06:00;17.80;99.90
10247;DHT22;5168;47.854;7.944;2023-09-19T15:08:25;17.20;99.90
10247;DHT22;5168;47.854;7.944;2023-09-19T15:10:52;17.50;99.90
10247;DHT22;5168;47.854;7.944;2023-09-19T15:15:44;17.60;99.90
10247;DHT22;5168;47.854;7.944;2023-09-19T15:18:12;18.20;99.90
10247;DHT22;5168;47.854;7.944;2023-09-19T15:20:45;17.60;99.90
10247;DHT22;5168;47.854;7.944;2023-09-19T15:25:38;17.90;99.90
10247;DHT22;5168;47.854;7.944;2023-09-19T15:30:39;17.30;99.90
10247;DHT22;5168;47.854;7.944;2023-09-19T15:33:04;17.40;99.90
10247;DHT22;5168;47.854;7.944;2023-09-19T15:37:56;16.90;99.90
10247;DHT22;5168;47.854;7.944;2023-09-19T15:52:39;16.70;99.90
10247;DHT22;5168;47.854;7.944;2023-09-19T15:55:05;16.50;99.90
10247;DHT22;5168;47.854;7.944;2023-09-19T15:57:38;16.50;99.90
10247;DHT22;5168;47.854;7.944;2023-09-19T16:00:05;16.70;99.90
10247;DHT22;5168;47.854;7.944;2023-09-19T16:02:35;16.50;99.90
10247;DHT22;5168;47.854;7.944;2023-09-19T16:05:01;16.60;99.90
10247;DHT22;5168;47.854;7.944;2023-09-19T16:17:14;16.80;99.90
10247;DHT22;5168;47.854;7.944;2023-09-19T16:24:34;16.60;99.90
10247;DHT22;5168;47.854;7.944;2023-09-19T16:44:02;15.90;99.90
10247;DHT22;5168;47.854;7.944;2023-09-19T16:46:29;15.80;99.90
10247;DHT22;5168;47.854;7.944;2023-09-19T16:48:55;15.60;99.90
10247;DHT22;5168;47.854;7.944;2023-09-19T16:53:48;15.80;99.90
10247;DHT22;5168;47.854;7.944;2023-09-19T16:56:18;15.30;99.90
10247;DHT22;5168;47.854;7.944;2023-09-19T16:58:45;15.80;99.90
10247;DHT22;5168;47.854;7.944;2023-09-19T17:01:13;15.30;99.90
10247;DHT22;5168;47.854;7.944;2023-09-19T17:03:42;15.10;99.90
10247;DHT22;5168;47.854;7.944;2023-09-19T17:06:13;14.90;99.90
10247;DHT22;5168;47.854;7.944;2023-09-19T17:08:40;14.70;99.90
10247;DHT22;5168;47.854;7.944;2023-09-19T17:11:10;15.00;99.90
10247;DHT22;5168;47.854;7.944;2023-09-19T17:13:37;14.90;99.90
10247;DHT22;5168;47.854;7.944;2023-09-19T17:16:03;15.40;99.90
10247;DHT22;5168;47.854;7.944;2023-09-19T17:21:00;14.70;99.90
10247;DHT22;5168;47.854;7.944;2023-09-19T17:23:30;15.30;99.90
10247;DHT22;5168;47.854;7.944;2023-09-19T17:28:32;14.50;99.90
10247;DHT22;5168;47.854;7.944;2023-09-19T17:33:25;14.40;99.90
10247;DHT22;5168;47.854;7.944;2023-09-19T17:36:13;14.40;99.90
10247;DHT22;5168;47.854;7.944;2023-09-19T17:38:40;14.60;99.90
10247;DHT22;5168;47.854;7.944;2023-09-19T17:41:06;14.80;99.90
10247;DHT22;5168;47.854;7.944;2023-09-19T17:43:34;14.10;99.90
10247;DHT22;5168;47.854;7.944;2023-09-19T17:46:10;14.30;99.90
10247;DHT22;5168;47.854;7.944;2023-09-19T17:48:36;14.10;99.90
10247;DHT22;5168;47.854;7.944;2023-09-19T17:51:03;14.20;99.90
10247;DHT22;5168;47.854;7.944;2023-09-19T17:53:29;14.80;99.90
10247;DHT22;5168;47.854;7.944;2023-09-19T17:55:54;14.70;99.90
10247;DHT22;5168;47.854;7.944;2023-09-19T17:58:20;13.90;99.90
10247;DHT22;5168;47.854;7.944;2023-09-19T18:05:46;14.60;99.90
10247;DHT22;5168;47.854;7.944;2023-09-19T18:08:17;13.90;99.90
10247;DHT22;5168;47.854;7.944;2023-09-19T18:10:42;14.50;99.90
10247;DHT22;5168;47.854;7.944;2023-09-19T18:15:36;14.40;99.90
10247;DHT22;5168;47.854;7.944;2023-09-19T18:18:06;13.80;99.90
10247;DHT22;5168;47.854;7.944;2023-09-19T18:20:36;13.90;99.90
10247;DHT22;5168;47.854;7.944;2023-09-19T18:23:02;13.70;99.90
10247;DHT22;5168;47.854;7.944;2023-09-19T18:30:20;14.20;99.90
10247;DHT22;5168;47.854;7.944;2023-09-19T18:35:12;14.10;99.90
10247;DHT22;5168;47.854;7.944;2023-09-19T18:37:40;13.70;99.90
10247;DHT22;5168;47.854;7.944;2023-09-19T18:40:07;13.40;99.90
10247;DHT22;5168;47.854;7.944;2023-09-19T18:42:36;14.10;99.90
10247;DHT22;5168;47.854;7.944;2023-09-19T18:45:02;13.30;99.90
10247;DHT22;5168;47.854;7.944;2023-09-19T18:47:28;13.80;99.90
10247;DHT22;5168;47.854;7.944;2023-09-19T18:49:54;13.50;99.90
10247;DHT22;5168;47.854;7.944;2023-09-19T18:52:21;13.50;99.90
10247;DHT22;5168;47.854;7.944;2023-09-19T18:54:48;13.70;99.90
10247;DHT22;5168;47.854;7.944;2023-09-19T18:57:13;13.80;99.90
10247;DHT22;5168;47.854;7.944;2023-09-19T18:59:39;13.40;99.90
10247;DHT22;5168;47.854;7.944;2023-09-19T19:02:05;13.30;99.90
10247;DHT22;5168;47.854;7.944;2023-09-19T19:04:31;13.90;99.90
10247;DHT22;5168;47.854;7.944;2023-09-19T19:09:24;13.80;99.90
10247;DHT22;5168;47.854;7.944;2023-09-19T19:11:49;13.70;99.90
10247;DHT22;5168;47.854;7.944;2023-09-19T19:14:15;13.30;99.90
10247;DHT22;5168;47.854;7.944;2023-09-19T19:16:42;13.60;99.90
10247;DHT22;5168;47.854;7.944;2023-09-19T19:21:36;13.70;99.90
10247;DHT22;5168;47.854;7.944;2023-09-19T19:24:04;13.20;99.90
10247;DHT22;5168;47.854;7.944;2023-09-19T19:26:29;13.70;99.90
10247;DHT22;5168;47.854;7.944;2023-09-19T19:28:56;13.50;99.90
10247;DHT22;5168;47.854;7.944;2023-09-19T19:33:50;12.80;99.90
10247;DHT22;5168;47.854;7.944;2023-09-19T19:38:47;12.90;99.90
10247;DHT22;5168;47.854;7.944;2023-09-19T19:43:40;12.90;99.90
10247;DHT22;5168;47.854;7.944;2023-09-19T19:48:35;12.50;99.90
10247;DHT22;5168;47.854;7.944;2023-09-19T19:51:09;12.50;99.90
10247;DHT22;5168;47.854;7.944;2023-09-19T19:53:36;12.70;99.90
10247;DHT22;5168;47.854;7.944;2023-09-19T19:56:03;12.90;99.90
10247;DHT22;5168;47.854;7.944;2023-09-19T19:58:33;12.80;99.90
10247;DHT22;5168;47.854;7.944;2023-09-19T20:01:00;12.50;99.90
10247;DHT22;5168;47.854;7.944;2023-09-19T20:03:27;13.10;99.90
10247;DHT22;5168;47.854;7.944;2023-09-19T20:08:19;13.40;99.90
10247;DHT22;5168;47.854;7.944;2023-09-19T20:10:44;13.30;99.90
10247;DHT22;5168;47.854;7.944;2023-09-19T20:13:10;13.10;99.90
10247;DHT22;5168;47.854;7.944;2023-09-19T20:15:38;12.60;99.90
10247;DHT22;5168;47.854;7.944;2023-09-19T20:18:06;12.80;99.90
10247;DHT22;5168;47.854;7.944;2023-09-19T20:23:04;13.30;99.90
10247;DHT22;5168;47.854;7.944;2023-09-19T20:25:34;13.00;99.90
10247;DHT22;5168;47.854;7.944;2023-09-19T20:28:00;12.70;99.90